createdAt,value
2023-05-16T00:02:03.264Z,8.13
2023-05-16T00:04:33.876Z,8.02
2023-05-16T00:07:04.369Z,9.23
2023-05-16T00:09:34.679Z,9.05
2023-05-16T00:12:05.429Z,9.55
2023-05-16T00:14:36.599Z,8.68
2023-05-16T00:17:12.432Z,9.75
2023-05-16T00:19:44.713Z,9.23
2023-05-16T00:22:15.155Z,9.02
2023-05-16T00:24:45.594Z,9.95
2023-05-16T00:27:16.127Z,9.48
2023-05-16T00:29:46.666Z,9.85
2023-05-16T00:32:20.834Z,9.50
2023-05-16T00:34:51.563Z,10.52
2023-05-16T00:37:22.180Z,10.27
2023-05-16T00:39:52.591Z,10.98
2023-05-16T00:42:23.631Z,10.20
2023-05-16T00:44:54.044Z,9.93
2023-05-16T00:47:27.025Z,10.23
2023-05-16T00:49:57.693Z,11.18
2023-05-16T00:52:28.767Z,10.18
2023-05-16T00:54:59.292Z,10.55
2023-05-16T00:57:30.102Z,11.50
2023-05-16T01:00:00.785Z,11.80
2023-05-16T01:02:34.166Z,11.65
2023-05-16T01:05:05.551Z,12.60
2023-05-16T01:07:36.078Z,13.07
2023-05-16T01:10:09.565Z,13.05
2023-05-16T01:12:46.795Z,14.07
2023-05-16T01:15:21.988Z,12.98
2023-05-16T01:18:03.245Z,13.02
2023-05-16T01:20:42.136Z,14.20
2023-05-16T01:23:41.118Z,14.00
2023-05-16T01:26:25.752Z,14.05
2023-05-16T01:28:57.342Z,13.98
2023-05-16T01:31:28.965Z,14.05
2023-05-16T01:33:59.465Z,15.05
2023-05-16T01:36:39.211Z,15.65
2023-05-16T01:39:17.130Z,15.73
2023-05-16T01:42:00.517Z,15.68
2023-05-16T01:44:38.521Z,16.02
2023-05-16T01:47:15.133Z,16.00
2023-05-16T01:49:53.575Z,16.42
2023-05-16T01:52:31.427Z,17.58
2023-05-16T01:55:03.053Z,17.27
2023-05-16T01:57:36.745Z,17.92
2023-05-16T02:00:08.802Z,16.98
2023-05-16T02:02:44.726Z,16.63
2023-05-16T02:05:15.552Z,19.00
2023-05-16T02:07:47.703Z,19.88
2023-05-16T02:10:18.096Z,20.23
2023-05-16T02:12:51.143Z,20.15
2023-05-16T02:15:21.844Z,20.98
2023-05-16T02:17:52.733Z,21.83
2023-05-16T02:20:23.196Z,21.58
2023-05-16T02:22:53.599Z,21.48
2023-05-16T02:25:24.404Z,21.90
2023-05-16T02:27:57.576Z,21.65
2023-05-16T02:30:28.203Z,22.10
2023-05-16T02:32:59.022Z,23.23
2023-05-16T02:35:29.848Z,22.90
2023-05-16T02:38:00.839Z,24.48
2023-05-16T02:40:31.517Z,23.42
2023-05-16T02:43:04.486Z,24.67
2023-05-16T02:45:35.661Z,25.92
2023-05-16T02:48:06.290Z,26.05
2023-05-16T02:50:37.719Z,25.48
2023-05-16T02:53:08.207Z,25.20
2023-05-16T02:55:38.771Z,25.83
2023-05-16T02:58:14.796Z,25.85
2023-05-16T03:00:45.356Z,26.02
2023-05-16T03:03:16.449Z,29.50
2023-05-16T03:05:47.604Z,27.27
2023-05-16T03:08:18.022Z,27.65
2023-05-16T03:10:48.371Z,28.60
2023-05-16T03:13:21.882Z,28.95
2023-05-16T03:15:52.560Z,27.58
2023-05-16T03:18:23.049Z,28.25
2023-05-16T03:20:53.680Z,28.95
2023-05-16T03:23:24.401Z,28.13
2023-05-16T03:25:54.874Z,29.23
2023-05-16T03:28:28.454Z,29.38
2023-05-16T03:30:58.944Z,28.20
2023-05-16T03:33:29.462Z,31.27
2023-05-16T03:35:59.931Z,30.95
2023-05-16T03:38:30.341Z,29.67
2023-05-16T03:41:01.148Z,31.25
2023-05-16T03:43:34.228Z,31.98
2023-05-16T03:46:05.243Z,32.10
2023-05-16T03:48:35.737Z,32.70
2023-05-16T03:51:06.263Z,32.83
2023-05-16T03:53:36.745Z,35.13
2023-05-16T03:56:08.152Z,37.75
2023-05-16T03:58:41.374Z,34.88
2023-05-16T04:01:11.764Z,36.45
2023-05-16T04:03:42.276Z,35.70
2023-05-16T04:06:12.668Z,35.80
2023-05-16T04:08:45.152Z,35.92
2023-05-16T04:11:15.739Z,37.47
2023-05-16T04:13:48.667Z,37.10
2023-05-16T04:16:19.072Z,37.90
2023-05-16T04:18:49.642Z,37.25
2023-05-16T04:21:20.129Z,38.00
2023-05-16T04:23:50.676Z,37.88
2023-05-16T04:26:22.774Z,38.55
2023-05-16T04:28:56.189Z,38.10
2023-05-16T04:31:27.110Z,40.03
2023-05-16T04:33:58.214Z,40.75
2023-05-16T04:36:30.312Z,39.00
2023-05-16T04:39:00.783Z,38.63
2023-05-16T04:41:31.281Z,38.45
2023-05-16T04:44:05.332Z,37.83
2023-05-16T04:46:35.994Z,38.97
2023-05-16T04:49:06.625Z,38.03
2023-05-16T04:51:37.145Z,36.38
2023-05-16T04:54:09.003Z,37.65
2023-05-16T04:56:39.371Z,39.35
2023-05-16T04:59:12.516Z,38.13
2023-05-16T05:01:42.981Z,40.03
2023-05-16T05:04:13.528Z,37.38
2023-05-16T05:06:44.262Z,36.92
2023-05-16T05:09:14.690Z,35.50
2023-05-16T05:11:45.266Z,35.63
2023-05-16T05:14:18.314Z,36.97
2023-05-16T05:16:48.890Z,35.95
2023-05-16T05:19:19.418Z,37.47
2023-05-16T05:21:49.865Z,37.25
2023-05-16T05:24:20.232Z,36.38
2023-05-16T05:26:50.762Z,37.03
2023-05-16T05:29:23.963Z,36.55
2023-05-16T05:31:54.352Z,36.63
2023-05-16T05:34:24.780Z,35.85
2023-05-16T05:36:55.114Z,35.35
2023-05-16T05:39:25.829Z,34.33
2023-05-16T05:41:56.268Z,34.80
2023-05-16T05:44:29.200Z,34.00
2023-05-16T05:46:59.995Z,34.08
2023-05-16T05:49:31.027Z,34.65
2023-05-16T05:52:01.606Z,31.50
2023-05-16T05:54:33.037Z,32.78
2023-05-16T05:57:03.676Z,31.10
2023-05-16T05:59:36.649Z,32.28
2023-05-16T06:02:07.730Z,32.10
2023-05-16T06:04:38.976Z,32.75
2023-05-16T06:07:09.415Z,30.15
2023-05-16T06:09:39.806Z,31.60
2023-05-16T06:12:11.342Z,32.25
2023-05-16T06:14:44.348Z,30.15
2023-05-16T06:17:14.993Z,27.63
2023-05-16T06:19:45.707Z,28.58
2023-05-16T06:22:16.254Z,27.20
2023-05-16T06:24:46.821Z,29.00
2023-05-16T06:27:17.341Z,25.77
2023-05-16T06:29:50.619Z,26.83
2023-05-16T06:32:21.172Z,25.17
2023-05-16T06:34:52.488Z,27.42
2023-05-16T06:37:23.722Z,26.10
2023-05-16T06:39:54.193Z,24.35
2023-05-16T06:42:24.708Z,24.65
2023-05-16T06:44:57.839Z,24.90
2023-05-16T06:47:28.416Z,22.40
2023-05-16T06:49:58.903Z,22.63
2023-05-16T06:52:29.456Z,20.88
2023-05-16T06:54:59.997Z,21.83
2023-05-16T06:57:30.446Z,22.83
2023-05-16T07:00:03.730Z,21.02
2023-05-16T07:05:06.217Z,20.60
2023-05-16T07:07:36.770Z,20.73
2023-05-16T07:10:07.844Z,21.20
2023-05-16T07:12:40.430Z,23.35
2023-05-16T07:15:14.797Z,20.45
2023-05-16T07:17:45.409Z,22.20
2023-05-16T07:20:16.357Z,21.80
2023-05-16T07:22:46.898Z,20.77
2023-05-16T07:25:17.483Z,18.70
2023-05-16T07:27:47.959Z,18.23
2023-05-16T07:30:21.841Z,17.98
2023-05-16T07:32:52.965Z,16.63
2023-05-16T07:35:23.628Z,17.13
2023-05-16T07:37:54.216Z,16.17
2023-05-16T07:40:28.476Z,15.52
2023-05-16T07:42:59.876Z,13.55
2023-05-16T07:45:33.032Z,12.90
2023-05-16T07:48:03.649Z,14.07
2023-05-16T07:50:34.226Z,12.77
2023-05-16T07:53:04.818Z,12.48
2023-05-16T07:55:35.464Z,12.45
2023-05-16T07:58:06.802Z,12.23
2023-05-16T08:00:40.038Z,13.45
2023-05-16T08:03:11.134Z,12.68
2023-05-16T08:05:41.806Z,12.50
2023-05-16T08:08:12.459Z,11.38
2023-05-16T08:10:42.835Z,11.05
2023-05-16T08:13:13.377Z,9.48
2023-05-16T08:15:46.894Z,10.75
2023-05-16T08:18:20.705Z,9.65
2023-05-16T08:20:52.710Z,9.63
2023-05-16T08:23:23.238Z,10.30
2023-05-16T08:25:54.923Z,10.20
2023-05-16T08:28:25.592Z,11.10
2023-05-16T08:30:58.939Z,10.48
2023-05-16T08:33:29.418Z,11.50
2023-05-16T08:35:59.879Z,12.13
2023-05-16T08:38:30.373Z,12.40
2023-05-16T08:41:00.923Z,11.70
2023-05-16T08:43:31.808Z,11.65
2023-05-16T08:46:04.875Z,12.43
2023-05-16T08:48:37.019Z,12.80
2023-05-16T08:51:10.906Z,13.02
2023-05-16T08:53:48.817Z,13.60
2023-05-16T08:56:22.474Z,14.52
2023-05-16T08:58:55.421Z,14.88
2023-05-16T09:01:28.586Z,14.23
2023-05-16T09:03:59.651Z,14.95
2023-05-16T09:06:30.457Z,15.32
2023-05-16T09:09:00.963Z,14.55
2023-05-16T09:11:31.939Z,15.77
2023-05-16T09:14:02.684Z,15.93
2023-05-16T09:16:35.909Z,16.77
2023-05-16T09:19:06.638Z,15.85
2023-05-16T09:21:37.968Z,17.05
2023-05-16T09:24:11.042Z,16.52
2023-05-16T09:26:42.644Z,16.92
2023-05-16T09:29:15.214Z,16.85
2023-05-16T09:31:48.326Z,16.75
2023-05-16T09:34:18.910Z,17.65
2023-05-16T09:36:49.526Z,17.33
2023-05-16T09:39:19.966Z,17.75
2023-05-16T09:41:55.106Z,17.13
2023-05-16T09:44:25.911Z,17.02
2023-05-16T09:47:00.059Z,17.20
2023-05-16T09:49:31.044Z,17.50
2023-05-16T09:52:04.741Z,17.80
2023-05-16T09:54:36.256Z,17.48
2023-05-16T09:57:07.277Z,17.30
2023-05-16T09:59:40.249Z,18.95
2023-05-16T10:02:14.404Z,17.45
2023-05-16T10:04:45.605Z,19.10
2023-05-16T10:07:16.797Z,17.95
2023-05-16T10:09:47.924Z,19.30
2023-05-16T10:12:19.165Z,18.60
2023-05-16T10:14:50.810Z,17.17
2023-05-16T10:17:24.483Z,17.77
2023-05-16T10:19:57.249Z,18.40
2023-05-16T10:22:29.530Z,19.98
2023-05-16T10:25:10.044Z,18.58
2023-05-16T10:27:41.349Z,17.92
2023-05-16T10:30:14.488Z,17.83
2023-05-16T10:32:49.661Z,18.02
2023-05-16T10:35:21.008Z,18.90
2023-05-16T10:37:54.519Z,17.63
2023-05-16T10:40:25.760Z,18.73
2023-05-16T10:42:59.953Z,19.48
2023-05-16T10:45:31.692Z,19.38
2023-05-16T10:48:09.946Z,19.23
2023-05-16T10:50:43.233Z,19.10
2023-05-16T10:53:23.530Z,17.77
2023-05-16T10:56:12.277Z,17.17
2023-05-16T10:58:47.312Z,16.27
2023-05-16T11:01:26.429Z,16.58
2023-05-16T11:04:13.911Z,15.52
2023-05-16T11:06:52.885Z,14.80
2023-05-16T11:09:27.064Z,14.65
2023-05-16T11:12:02.954Z,15.57
2023-05-16T11:14:42.584Z,14.75
2023-05-16T11:17:16.372Z,14.43
2023-05-16T11:19:52.047Z,13.30
2023-05-16T11:22:29.431Z,12.70
2023-05-16T11:25:03.602Z,11.25
2023-05-16T11:27:36.359Z,11.32
2023-05-16T11:30:17.858Z,10.30
2023-05-16T11:32:50.903Z,9.90
2023-05-16T11:35:24.002Z,9.82
2023-05-16T11:37:54.656Z,9.32
2023-05-16T11:40:25.111Z,10.60
2023-05-16T11:42:56.088Z,9.75
2023-05-16T11:45:27.516Z,9.40
2023-05-16T11:47:58.553Z,9.70
2023-05-16T11:50:31.921Z,9.70
2023-05-16T11:53:02.775Z,9.02
2023-05-16T11:58:09.142Z,7.65
2023-05-16T12:00:39.601Z,9.02
2023-05-16T12:03:10.135Z,8.98
2023-05-16T12:05:43.433Z,8.55
2023-05-16T12:08:14.146Z,8.73
2023-05-16T12:10:45.350Z,7.82
2023-05-16T12:13:16.286Z,7.95
2023-05-16T12:15:47.446Z,7.50
2023-05-16T12:18:18.927Z,7.80
2023-05-16T12:20:52.527Z,7.82
2023-05-16T12:23:23.107Z,8.82
2023-05-16T12:25:55.687Z,6.85
2023-05-16T12:28:26.222Z,6.65
2023-05-16T12:30:57.237Z,6.43
2023-05-16T12:33:28.043Z,5.43
2023-05-16T12:36:03.069Z,5.93
2023-05-16T12:41:03.902Z,4.95
2023-05-16T12:43:34.406Z,5.30
2023-05-16T12:46:04.946Z,4.93
2023-05-16T12:48:37.699Z,4.93
2023-05-16T12:51:20.296Z,5.07
2023-05-16T12:54:08.828Z,4.07
2023-05-16T12:56:42.898Z,4.20
2023-05-16T12:59:13.664Z,6.13
2023-05-16T13:01:46.476Z,3.90
2023-05-16T13:04:20.188Z,3.40
2023-05-16T13:09:31.110Z,3.15
2023-05-16T13:12:03.247Z,2.78
2023-05-16T13:14:34.818Z,2.67
2023-05-16T13:17:05.251Z,2.83
2023-05-16T13:19:35.665Z,2.90
2023-05-16T13:22:08.696Z,2.80
2023-05-16T13:24:39.080Z,2.50
2023-05-16T13:27:09.935Z,2.40
2023-05-16T13:29:40.878Z,2.47
2023-05-16T13:32:11.924Z,2.10
2023-05-16T13:34:42.406Z,2.13
2023-05-16T13:37:15.471Z,2.22
2023-05-16T13:39:45.903Z,2.40
2023-05-16T13:42:16.572Z,2.33
2023-05-16T13:44:46.959Z,2.67
2023-05-16T13:47:17.478Z,2.53
2023-05-16T13:49:47.983Z,2.55
2023-05-16T13:52:21.259Z,2.10
2023-05-16T13:54:51.967Z,2.33
2023-05-16T13:57:23.306Z,2.40
2023-05-16T14:00:17.739Z,3.15
2023-05-16T14:02:48.645Z,3.63
2023-05-16T14:05:19.292Z,2.92
2023-05-16T14:07:52.408Z,2.67
2023-05-16T14:10:22.901Z,2.90
2023-05-16T14:12:53.566Z,2.92
2023-05-16T14:15:24.148Z,2.60
2023-05-16T14:17:55.127Z,2.60
2023-05-16T14:20:25.971Z,3.17
2023-05-16T14:22:59.671Z,3.13
2023-05-16T14:25:30.384Z,3.58
2023-05-16T14:28:01.163Z,6.32
2023-05-16T14:30:31.815Z,3.30
2023-05-16T14:33:03.690Z,2.42
2023-05-16T14:35:34.205Z,5.43
2023-05-16T14:38:07.710Z,3.22
2023-05-16T14:40:38.119Z,3.28
2023-05-16T14:43:08.979Z,3.15
2023-05-16T14:45:40.248Z,3.40
2023-05-16T14:48:11.418Z,2.80
2023-05-16T14:50:41.850Z,3.00
2023-05-16T14:53:14.936Z,2.65
2023-05-16T14:55:45.452Z,2.70
2023-05-16T14:58:15.971Z,2.10
2023-05-16T15:00:46.482Z,2.17
2023-05-16T15:03:17.063Z,2.00
2023-05-16T15:05:47.897Z,1.55
2023-05-16T15:08:21.041Z,1.55
2023-05-16T15:10:51.521Z,1.60
2023-05-16T15:13:21.945Z,1.90
2023-05-16T15:15:52.792Z,1.83
2023-05-16T15:18:24.738Z,2.00
2023-05-16T15:20:55.144Z,1.85
2023-05-16T15:23:28.550Z,1.80
2023-05-16T15:25:59.069Z,2.10
2023-05-16T15:28:29.619Z,1.73
2023-05-16T15:31:00.014Z,2.00
2023-05-16T15:33:30.672Z,1.88
2023-05-16T15:36:01.847Z,1.70
2023-05-16T15:38:38.349Z,1.90
2023-05-16T15:41:24.055Z,1.98
2023-05-16T15:43:59.851Z,1.73
2023-05-16T15:46:30.645Z,1.98
2023-05-16T15:49:01.303Z,1.80
2023-05-16T15:51:31.837Z,1.60
2023-05-16T15:54:05.353Z,2.40
2023-05-16T15:56:35.986Z,2.60
2023-05-16T15:59:06.495Z,2.47
2023-05-16T16:01:36.973Z,2.25
2023-05-16T16:04:07.616Z,1.92
2023-05-16T16:06:38.189Z,1.67
2023-05-16T16:09:11.501Z,2.53
2023-05-16T16:11:41.916Z,2.30
2023-05-16T16:14:12.530Z,2.00
2023-05-16T16:16:43.175Z,1.60
2023-05-16T16:19:13.669Z,1.85
2023-05-16T16:21:44.202Z,1.70
2023-05-16T16:24:17.684Z,1.80
2023-05-16T16:26:48.212Z,1.90
2023-05-16T16:29:18.674Z,2.25
2023-05-16T16:31:49.134Z,1.73
2023-05-16T16:34:21.528Z,2.08
2023-05-16T16:36:53.489Z,2.45
2023-05-16T16:39:26.534Z,2.35
2023-05-16T16:41:56.998Z,2.97
2023-05-16T16:44:27.417Z,2.78
2023-05-16T16:46:57.985Z,2.97
2023-05-16T16:49:28.488Z,2.30
2023-05-16T16:51:58.907Z,3.10
2023-05-16T16:54:31.923Z,1.98
2023-05-16T16:57:02.440Z,2.10
2023-05-16T16:59:32.967Z,3.33
2023-05-16T17:02:03.564Z,2.70
2023-05-16T17:04:35.152Z,2.17
2023-05-16T17:07:05.582Z,2.35
2023-05-16T17:09:42.341Z,1.90
2023-05-16T17:12:19.226Z,2.17
2023-05-16T17:14:51.347Z,2.00
2023-05-16T17:17:24.107Z,1.95
2023-05-16T17:19:55.104Z,3.13
2023-05-16T17:22:26.154Z,1.95
2023-05-16T17:24:59.143Z,2.38
2023-05-16T17:27:29.682Z,2.15
2023-05-16T17:30:00.210Z,1.85
2023-05-16T17:32:31.862Z,2.72
2023-05-16T17:35:04.327Z,3.42
2023-05-16T17:37:36.778Z,2.03
2023-05-16T17:40:17.135Z,3.92
2023-05-16T17:42:48.004Z,4.40
2023-05-16T17:45:18.952Z,3.03
2023-05-16T17:47:50.061Z,2.42
2023-05-16T17:50:22.312Z,3.17
2023-05-16T17:52:52.723Z,2.45
2023-05-16T17:55:26.345Z,2.47
2023-05-16T17:57:57.099Z,2.78
2023-05-16T18:00:27.746Z,2.20
2023-05-16T18:03:03.065Z,2.65
2023-05-16T18:05:33.634Z,2.63
2023-05-16T18:08:05.877Z,3.88
2023-05-16T18:10:50.983Z,2.95
2023-05-16T18:13:22.634Z,4.28
2023-05-16T18:15:53.249Z,2.13
2023-05-16T18:18:23.765Z,2.08
2023-05-16T18:20:54.310Z,2.20
2023-05-16T18:23:24.912Z,2.17
2023-05-16T18:25:58.168Z,2.13
2023-05-16T18:28:29.474Z,3.88
2023-05-16T18:30:59.993Z,2.55
2023-05-16T18:33:30.601Z,2.70
2023-05-16T18:36:01.104Z,2.70
2023-05-16T18:38:33.464Z,2.38
2023-05-16T18:41:07.528Z,2.28
2023-05-16T18:43:38.224Z,2.35
2023-05-16T18:46:08.675Z,1.85
2023-05-16T18:48:39.240Z,2.13
2023-05-16T18:51:09.861Z,1.98
2023-05-16T18:53:40.489Z,1.80
2023-05-16T18:56:13.739Z,2.55
2023-05-16T18:58:44.179Z,1.83
2023-05-16T19:01:14.894Z,1.63
2023-05-16T19:03:45.503Z,2.40
2023-05-16T19:06:16.149Z,2.20
2023-05-16T19:08:47.892Z,2.67
2023-05-16T19:11:22.578Z,2.53
2023-05-16T19:13:54.087Z,4.50
2023-05-16T19:16:24.818Z,4.13
2023-05-16T19:18:55.374Z,2.90
2023-05-16T19:21:26.643Z,2.13
2023-05-16T19:23:57.381Z,1.80
2023-05-16T19:26:31.173Z,1.83
2023-05-16T19:29:01.836Z,3.55
2023-05-16T19:31:32.371Z,2.45
2023-05-16T19:34:03.126Z,1.80
2023-05-16T19:36:33.970Z,1.83
2023-05-16T19:39:04.381Z,2.00
2023-05-16T19:41:37.489Z,1.83
2023-05-16T19:44:08.296Z,1.80
2023-05-16T19:46:39.520Z,2.85
2023-05-16T19:49:10.951Z,2.22
2023-05-16T19:51:42.382Z,2.08
2023-05-16T19:54:13.241Z,2.17
2023-05-16T19:56:46.407Z,2.20
2023-05-16T19:59:16.887Z,1.98
2023-05-16T20:01:47.681Z,2.30
2023-05-16T20:04:18.314Z,1.88
2023-05-16T20:06:49.607Z,2.30
2023-05-16T20:09:20.358Z,1.90
2023-05-16T20:11:53.757Z,1.65
2023-05-16T20:14:24.146Z,2.05
2023-05-16T20:16:55.105Z,2.30
2023-05-16T20:19:25.654Z,2.08
2023-05-16T20:21:56.199Z,1.92
2023-05-16T20:24:26.685Z,2.30
2023-05-16T20:26:59.835Z,1.90
2023-05-16T20:29:30.590Z,1.90
2023-05-16T20:32:01.148Z,1.98
2023-05-16T20:34:31.630Z,1.83
2023-05-16T20:37:02.150Z,2.05
2023-05-16T20:39:33.305Z,1.40
2023-05-16T20:42:10.936Z,1.67
2023-05-16T20:44:41.862Z,5.70
2023-05-16T20:47:12.504Z,2.40
2023-05-16T20:49:42.923Z,2.20
2023-05-16T20:52:13.440Z,1.58
2023-05-16T20:54:44.419Z,1.70
2023-05-16T20:57:17.880Z,1.70
2023-05-16T20:59:48.424Z,2.08
2023-05-16T21:02:19.011Z,1.55
2023-05-16T21:04:49.551Z,2.03
2023-05-16T21:07:20.230Z,1.90
2023-05-16T21:09:50.897Z,1.60
2023-05-16T21:12:23.950Z,1.88
2023-05-16T21:14:54.357Z,1.77
2023-05-16T21:17:24.738Z,1.80
2023-05-16T21:19:55.249Z,2.00
2023-05-16T21:22:25.937Z,1.65
2023-05-16T21:24:56.557Z,1.48
2023-05-16T21:27:29.623Z,1.95
2023-05-16T21:30:00.198Z,2.00
2023-05-16T21:32:32.628Z,1.65
2023-05-16T21:35:04.457Z,1.50
2023-05-16T21:37:34.992Z,1.75
2023-05-16T21:40:06.601Z,2.13
2023-05-16T21:42:39.822Z,2.60
2023-05-16T21:45:16.569Z,1.88
2023-05-16T21:47:47.370Z,1.90
2023-05-16T21:50:18.419Z,2.05
2023-05-16T21:52:49.504Z,1.30
2023-05-16T21:55:19.990Z,1.73
2023-05-16T21:57:53.067Z,1.30
2023-05-16T22:00:23.653Z,1.50
2023-05-16T22:02:54.131Z,1.65
2023-05-16T22:05:24.592Z,1.80
2023-05-16T22:07:55.033Z,1.52
2023-05-16T22:10:25.439Z,1.70
2023-05-16T22:12:58.863Z,2.70
2023-05-16T22:15:29.527Z,3.08
2023-05-16T22:18:02.395Z,2.65
2023-05-16T22:20:32.986Z,2.10
2023-05-16T22:23:03.410Z,2.35
2023-05-16T22:25:34.006Z,1.23
2023-05-16T22:28:07.509Z,1.60
2023-05-16T22:30:38.212Z,2.05
2023-05-16T22:33:08.822Z,1.95
2023-05-16T22:35:39.566Z,1.67
2023-05-16T22:38:10.138Z,1.77
2023-05-16T22:40:41.296Z,1.67
2023-05-16T22:43:14.550Z,1.70
2023-05-16T22:45:45.108Z,1.65
2023-05-16T22:48:15.595Z,1.88
2023-05-16T22:50:46.403Z,1.75
2023-05-16T22:53:16.822Z,2.00
2023-05-16T22:55:47.252Z,1.65
2023-05-16T22:58:20.286Z,1.58
2023-05-16T23:00:50.810Z,1.40
2023-05-16T23:03:21.786Z,1.73
2023-05-16T23:05:52.486Z,1.70
2023-05-16T23:08:22.974Z,1.52
2023-05-16T23:10:53.320Z,1.70
2023-05-16T23:13:26.381Z,1.40
2023-05-16T23:15:56.859Z,1.73
2023-05-16T23:18:27.353Z,1.55
2023-05-16T23:20:57.817Z,1.83
2023-05-16T23:23:28.364Z,1.42
2023-05-16T23:25:58.891Z,1.77
2023-05-16T23:28:32.115Z,1.80
2023-05-16T23:31:02.573Z,2.00
2023-05-16T23:33:33.183Z,1.45
2023-05-16T23:36:03.653Z,1.70
2023-05-16T23:38:34.143Z,1.48
2023-05-16T23:41:04.477Z,1.92
2023-05-16T23:43:37.616Z,1.70
2023-05-16T23:46:08.034Z,1.85
2023-05-16T23:48:38.777Z,2.40
2023-05-16T23:51:09.549Z,1.88
2023-05-16T23:53:39.954Z,1.38
2023-05-16T23:56:10.639Z,1.60
2023-05-16T23:58:43.878Z,1.30
